sensor_id;sensor_type;location;lat;lon;timestamp;pressure;altitude;pressure_sealevel;temperature;humidity
45941;BME280;31858;46.008;8.978;2023-11-21T00:09:39;93861.56;;;7.17;100.00
45941;BME280;31858;46.008;8.978;2023-11-21T00:19:43;93855.31;;;6.96;100.00
45941;BME280;31858;46.008;8.978;2023-11-21T00:29:44;93856.09;;;7.00;100.00
45941;BME280;31858;46.008;8.978;2023-11-21T00:39:47;93849.09;;;7.18;100.00
45941;BME280;31858;46.008;8.978;2023-11-21T00:49:49;93827.25;;;7.32;100.00
45941;BME280;31858;46.008;8.978;2023-11-21T00:59:52;93819.69;;;7.34;100.00
45941;BME280;31858;46.008;8.978;2023-11-21T01:09:53;93825.94;;;7.11;100.00
45941;BME280;31858;46.008;8.978;2023-11-21T01:19:58;93831.56;;;7.06;100.00
45941;BME280;31858;46.008;8.978;2023-11-21T01:29:59;93807.72;;;7.06;100.00
45941;BME280;31858;46.008;8.978;2023-11-21T01:40:03;93799.44;;;7.11;100.00
45941;BME280;31858;46.008;8.978;2023-11-21T01:50:12;93797.59;;;7.15;100.00
45941;BME280;31858;46.008;8.978;2023-11-21T02:00:16;93786.59;;;7.13;100.00
45941;BME280;31858;46.008;8.978;2023-11-21T02:10:19;93785.78;;;7.06;100.00
45941;BME280;31858;46.008;8.978;2023-11-21T02:20:24;93784.63;;;7.03;100.00
45941;BME280;31858;46.008;8.978;2023-11-21T02:30:28;93783.09;;;7.02;100.00
45941;BME280;31858;46.008;8.978;2023-11-21T02:40:32;93763.81;;;7.02;100.00
45941;BME280;31858;46.008;8.978;2023-11-21T02:50:34;93755.84;;;7.02;100.00
45941;BME280;31858;46.008;8.978;2023-11-21T03:00:37;93748.34;;;7.11;100.00
45941;BME280;31858;46.008;8.978;2023-11-21T03:10:41;93741.75;;;6.91;100.00
45941;BME280;31858;46.008;8.978;2023-11-21T03:20:43;93741.34;;;6.85;100.00
45941;BME280;31858;46.008;8.978;2023-11-21T03:30:47;93744.59;;;6.68;100.00
45941;BME280;31858;46.008;8.978;2023-11-21T03:40:49;93740.69;;;6.54;100.00
45941;BME280;31858;46.008;8.978;2023-11-21T03:50:52;93743.31;;;6.47;100.00
45941;BME280;31858;46.008;8.978;2023-11-21T04:00:53;93739.50;;;6.45;100.00
45941;BME280;31858;46.008;8.978;2023-11-21T04:10:56;93735.72;;;6.46;100.00
45941;BME280;31858;46.008;8.978;2023-11-21T04:20:58;93737.75;;;6.22;100.00
45941;BME280;31858;46.008;8.978;2023-11-21T04:31:01;93728.59;;;6.50;100.00
45941;BME280;31858;46.008;8.978;2023-11-21T04:41:03;93722.03;;;6.37;100.00
45941;BME280;31858;46.008;8.978;2023-11-21T04:51:06;93714.97;;;6.11;100.00
45941;BME280;31858;46.008;8.978;2023-11-21T05:01:08;93748.88;;;6.02;100.00
45941;BME280;31858;46.008;8.978;2023-11-21T05:11:11;93734.28;;;5.85;100.00
45941;BME280;31858;46.008;8.978;2023-11-21T05:21:12;93730.44;;;5.79;100.00
45941;BME280;31858;46.008;8.978;2023-11-21T05:31:16;93736.28;;;5.62;100.00
45941;BME280;31858;46.008;8.978;2023-11-21T05:41:19;93749.66;;;5.76;100.00
45941;BME280;31858;46.008;8.978;2023-11-21T05:51:23;93742.09;;;5.74;100.00
45941;BME280;31858;46.008;8.978;2023-11-21T06:01:25;93743.25;;;5.77;100.00
45941;BME280;31858;46.008;8.978;2023-11-21T06:11:29;93761.75;;;5.77;100.00
45941;BME280;31858;46.008;8.978;2023-11-21T06:21:31;93767.41;;;5.75;100.00
45941;BME280;31858;46.008;8.978;2023-11-21T06:31:35;93765.84;;;5.71;100.00
45941;BME280;31858;46.008;8.978;2023-11-21T06:41:37;93777.56;;;5.73;100.00
45941;BME280;31858;46.008;8.978;2023-11-21T06:51:40;93763.50;;;5.66;100.00
45941;BME280;31858;46.008;8.978;2023-11-21T07:01:42;93756.28;;;5.63;100.00
45941;BME280;31858;46.008;8.978;2023-11-21T07:11:46;93752.97;;;5.39;100.00
45941;BME280;31858;46.008;8.978;2023-11-21T07:21:48;93733.84;;;5.49;100.00
45941;BME280;31858;46.008;8.978;2023-11-21T07:31:52;93730.59;;;5.33;100.00
45941;BME280;31858;46.008;8.978;2023-11-21T07:41:55;93731.81;;;5.39;100.00
45941;BME280;31858;46.008;8.978;2023-11-21T07:51:59;93718.34;;;5.48;100.00
45941;BME280;31858;46.008;8.978;2023-11-21T08:02:01;93713.16;;;5.55;100.00
45941;BME280;31858;46.008;8.978;2023-11-21T08:12:04;93697.16;;;5.74;100.00
45941;BME280;31858;46.008;8.978;2023-11-21T08:22:06;93697.97;;;5.78;100.00
45941;BME280;31858;46.008;8.978;2023-11-21T08:32:09;93694.50;;;5.74;100.00
45941;BME280;31858;46.008;8.978;2023-11-21T08:42:11;93679.44;;;6.08;100.00
45941;BME280;31858;46.008;8.978;2023-11-21T08:52:14;93676.16;;;6.22;100.00
45941;BME280;31858;46.008;8.978;2023-11-21T09:02:16;93682.91;;;6.16;100.00
45941;BME280;31858;46.008;8.978;2023-11-21T09:12:19;93663.53;;;6.05;100.00
45941;BME280;31858;46.008;8.978;2023-11-21T09:22:21;93664.75;;;6.14;100.00
45941;BME280;31858;46.008;8.978;2023-11-21T09:32:26;93658.63;;;6.47;100.00
45941;BME280;31858;46.008;8.978;2023-11-21T09:42:30;93642.19;;;6.79;100.00
45941;BME280;31858;46.008;8.978;2023-11-21T09:52:42;93605.91;;;7.63;100.00
45941;BME280;31858;46.008;8.978;2023-11-21T10:02:48;93609.34;;;7.92;100.00
45941;BME280;31858;46.008;8.978;2023-11-21T10:12:55;93597.28;;;8.26;100.00
45941;BME280;31858;46.008;8.978;2023-11-21T10:22:56;93587.81;;;8.61;100.00
45941;BME280;31858;46.008;8.978;2023-11-21T10:33:00;93569.94;;;8.86;100.00
45941;BME280;31858;46.008;8.978;2023-11-21T10:43:06;93569.53;;;9.05;100.00
45941;BME280;31858;46.008;8.978;2023-11-21T10:53:11;93545.88;;;9.29;100.00
45941;BME280;31858;46.008;8.978;2023-11-21T11:03:13;93541.97;;;9.51;100.00
45941;BME280;31858;46.008;8.978;2023-11-21T11:13:16;93532.31;;;9.82;100.00
45941;BME280;31858;46.008;8.978;2023-11-21T11:23:31;93542.38;;;10.12;100.00
45941;BME280;31858;46.008;8.978;2023-11-21T11:33:43;93526.31;;;10.67;93.71
45941;BME280;31858;46.008;8.978;2023-11-21T11:43:45;93509.03;;;11.17;100.00
45941;BME280;31858;46.008;8.978;2023-11-21T11:53:48;93506.31;;;11.51;81.69
45941;BME280;31858;46.008;8.978;2023-11-21T12:04:23;93509.78;;;11.74;80.15
45941;BME280;31858;46.008;8.978;2023-11-21T12:14:32;93502.16;;;12.03;62.02
45941;BME280;31858;46.008;8.978;2023-11-21T12:24:34;93493.94;;;12.41;55.35
45941;BME280;31858;46.008;8.978;2023-11-21T12:34:37;93513.50;;;12.58;55.01
45941;BME280;31858;46.008;8.978;2023-11-21T12:44:39;93500.63;;;13.12;43.96
45941;BME280;31858;46.008;8.978;2023-11-21T12:54:43;93515.41;;;13.40;41.50
45941;BME280;31858;46.008;8.978;2023-11-21T13:04:51;93511.81;;;13.66;40.21
45941;BME280;31858;46.008;8.978;2023-11-21T13:14:55;93514.66;;;13.76;41.48
45941;BME280;31858;46.008;8.978;2023-11-21T13:24:56;93518.63;;;13.87;39.18
45941;BME280;31858;46.008;8.978;2023-11-21T13:34:59;93522.41;;;13.90;40.46
45941;BME280;31858;46.008;8.978;2023-11-21T13:45:01;93534.78;;;14.00;38.33
45941;BME280;31858;46.008;8.978;2023-11-21T13:55:05;93539.25;;;14.07;38.08
45941;BME280;31858;46.008;8.978;2023-11-21T14:05:14;93548.88;;;14.04;37.86
45941;BME280;31858;46.008;8.978;2023-11-21T14:15:23;93552.19;;;13.92;38.30
45941;BME280;31858;46.008;8.978;2023-11-21T14:25:24;93564.34;;;13.96;37.75
45941;BME280;31858;46.008;8.978;2023-11-21T14:35:28;93584.63;;;13.78;39.88
45941;BME280;31858;46.008;8.978;2023-11-21T14:45:32;93614.41;;;13.80;36.97
45941;BME280;31858;46.008;8.978;2023-11-21T14:55:36;93616.06;;;13.54;39.25
45941;BME280;31858;46.008;8.978;2023-11-21T15:05:52;93633.34;;;13.49;39.20
45941;BME280;31858;46.008;8.978;2023-11-21T15:15:55;93642.03;;;13.33;37.72
45941;BME280;31858;46.008;8.978;2023-11-21T15:26:01;93664.59;;;13.09;37.11
45941;BME280;31858;46.008;8.978;2023-11-21T15:36:06;93663.09;;;12.85;36.79
45941;BME280;31858;46.008;8.978;2023-11-21T15:46:10;93658.34;;;12.46;36.97
45941;BME280;31858;46.008;8.978;2023-11-21T15:56:13;93676.66;;;12.17;38.31
45941;BME280;31858;46.008;8.978;2023-11-21T16:06:15;93685.53;;;11.76;38.77
45941;BME280;31858;46.008;8.978;2023-11-21T16:16:21;93712.09;;;11.53;38.06
45941;BME280;31858;46.008;8.978;2023-11-21T16:26:23;93742.44;;;11.25;41.55
45941;BME280;31858;46.008;8.978;2023-11-21T16:36:26;93755.28;;;10.89;80.25
45941;BME280;31858;46.008;8.978;2023-11-21T16:46:27;93766.94;;;10.50;52.54
45941;BME280;31858;46.008;8.978;2023-11-21T16:56:30;93779.13;;;10.44;76.18
45941;BME280;31858;46.008;8.978;2023-11-21T17:06:32;93790.63;;;10.30;100.00
45941;BME280;31858;46.008;8.978;2023-11-21T17:16:35;93797.16;;;10.01;77.46
45941;BME280;31858;46.008;8.978;2023-11-21T17:26:37;93821.94;;;9.76;100.00
45941;BME280;31858;46.008;8.978;2023-11-21T17:36:41;93815.09;;;9.75;57.17
45941;BME280;31858;46.008;8.978;2023-11-21T17:46:42;93818.50;;;9.83;48.44
45941;BME280;31858;46.008;8.978;2023-11-21T17:56:46;93818.09;;;9.99;47.18
45941;BME280;31858;46.008;8.978;2023-11-21T18:06:47;93831.41;;;9.92;48.33
45941;BME280;31858;46.008;8.978;2023-11-21T18:16:51;93824.22;;;9.67;49.29
45941;BME280;31858;46.008;8.978;2023-11-21T18:26:53;93833.34;;;9.56;97.03
45941;BME280;31858;46.008;8.978;2023-11-21T18:36:56;93832.59;;;9.27;65.05
45941;BME280;31858;46.008;8.978;2023-11-21T18:46:57;93842.47;;;9.37;55.50
45941;BME280;31858;46.008;8.978;2023-11-21T18:57:00;93853.47;;;9.18;100.00
45941;BME280;31858;46.008;8.978;2023-11-21T19:07:02;93856.06;;;8.78;100.00
45941;BME280;31858;46.008;8.978;2023-11-21T19:17:06;93871.22;;;8.67;100.00
45941;BME280;31858;46.008;8.978;2023-11-21T19:27:08;93872.63;;;8.40;100.00
45941;BME280;31858;46.008;8.978;2023-11-21T19:37:11;93881.72;;;8.42;100.00
45941;BME280;31858;46.008;8.978;2023-11-21T19:47:13;93889.59;;;8.25;100.00
45941;BME280;31858;46.008;8.978;2023-11-21T19:57:16;93900.97;;;8.25;100.00
45941;BME280;31858;46.008;8.978;2023-11-21T20:07:17;93915.91;;;8.47;79.79
45941;BME280;31858;46.008;8.978;2023-11-21T20:17:22;93928.78;;;8.49;79.83
45941;BME280;31858;46.008;8.978;2023-11-21T20:27:24;93928.00;;;8.41;71.03
45941;BME280;31858;46.008;8.978;2023-11-21T20:37:27;93937.09;;;8.40;75.77
45941;BME280;31858;46.008;8.978;2023-11-21T20:47:28;93936.06;;;8.59;71.00
45941;BME280;31858;46.008;8.978;2023-11-21T20:57:34;93938.03;;;8.80;63.49
45941;BME280;31858;46.008;8.978;2023-11-21T21:07:35;93936.19;;;8.88;60.33
45941;BME280;31858;46.008;8.978;2023-11-21T21:17:38;93942.59;;;8.83;57.57
45941;BME280;31858;46.008;8.978;2023-11-21T21:27:40;93939.63;;;8.95;57.72
45941;BME280;31858;46.008;8.978;2023-11-21T21:37:43;93946.34;;;8.71;59.16
45941;BME280;31858;46.008;8.978;2023-11-21T21:47:46;93950.84;;;8.57;59.28
45941;BME280;31858;46.008;8.978;2023-11-21T21:57:49;93951.22;;;8.55;56.74
45941;BME280;31858;46.008;8.978;2023-11-21T22:07:51;93966.78;;;8.60;57.10
45941;BME280;31858;46.008;8.978;2023-11-21T22:17:54;93980.34;;;8.44;62.84
45941;BME280;31858;46.008;8.978;2023-11-21T22:27:56;93990.53;;;7.88;74.12
45941;BME280;31858;46.008;8.978;2023-11-21T22:38:01;93998.31;;;7.66;100.00
45941;BME280;31858;46.008;8.978;2023-11-21T22:48:03;94006.28;;;7.29;100.00
45941;BME280;31858;46.008;8.978;2023-11-21T22:58:06;94011.22;;;7.31;100.00
45941;BME280;31858;46.008;8.978;2023-11-21T23:08:08;94019.03;;;7.53;100.00
45941;BME280;31858;46.008;8.978;2023-11-21T23:18:12;94015.22;;;7.51;100.00
45941;BME280;31858;46.008;8.978;2023-11-21T23:28:15;94018.19;;;7.46;89.98
45941;BME280;31858;46.008;8.978;2023-11-21T23:38:20;94003.94;;;7.24;100.00
45941;BME280;31858;46.008;8.978;2023-11-21T23:48:22;93998.06;;;7.04;100.00
45941;BME280;31858;46.008;8.978;2023-11-21T23:58:25;93989.88;;;7.16;100.00
